sensor_id;sensor_type;location;lat;lon;timestamp;temperature;humidity
45785;DHT22;31489;51.404;5.474;2022-07-25T00:01:44;27.40;54.70
45785;DHT22;31489;51.404;5.474;2022-07-25T00:04:09;27.40;55.00
45785;DHT22;31489;51.404;5.474;2022-07-25T00:06:39;27.40;55.00
45785;DHT22;31489;51.404;5.474;2022-07-25T00:09:05;27.30;55.20
45785;DHT22;31489;51.404;5.474;2022-07-25T00:11:31;27.30;55.10
45785;DHT22;31489;51.404;5.474;2022-07-25T00:13:57;27.20;55.20
45785;DHT22;31489;51.404;5.474;2022-07-25T00:16:23;27.20;55.20
45785;DHT22;31489;51.404;5.474;2022-07-25T00:18:48;27.20;55.20
45785;DHT22;31489;51.404;5.474;2022-07-25T00:21:14;27.20;55.30
45785;DHT22;31489;51.404;5.474;2022-07-25T00:23:40;27.10;55.30
45785;DHT22;31489;51.404;5.474;2022-07-25T00:26:06;27.10;55.40
45785;DHT22;31489;51.404;5.474;2022-07-25T00:28:31;27.10;55.50
45785;DHT22;31489;51.404;5.474;2022-07-25T00:30:57;27.10;55.60
45785;DHT22;31489;51.404;5.474;2022-07-25T00:33:23;27.00;55.50
45785;DHT22;31489;51.404;5.474;2022-07-25T00:35:49;27.00;55.60
45785;DHT22;31489;51.404;5.474;2022-07-25T00:38:15;27.00;55.80
45785;DHT22;31489;51.404;5.474;2022-07-25T00:40:41;26.90;55.90
45785;DHT22;31489;51.404;5.474;2022-07-25T00:43:07;26.90;56.30
45785;DHT22;31489;51.404;5.474;2022-07-25T00:45:33;26.90;55.80
45785;DHT22;31489;51.404;5.474;2022-07-25T00:47:58;26.80;55.70
45785;DHT22;31489;51.404;5.474;2022-07-25T00:50:25;26.80;55.90
45785;DHT22;31489;51.404;5.474;2022-07-25T00:52:51;26.80;55.90
45785;DHT22;31489;51.404;5.474;2022-07-25T00:55:17;26.70;55.90
45785;DHT22;31489;51.404;5.474;2022-07-25T00:57:43;26.70;55.90
45785;DHT22;31489;51.404;5.474;2022-07-25T01:00:12;26.70;56.00
45785;DHT22;31489;51.404;5.474;2022-07-25T01:02:38;26.70;56.10
45785;DHT22;31489;51.404;5.474;2022-07-25T01:05:05;26.70;56.00
45785;DHT22;31489;51.404;5.474;2022-07-25T01:07:31;26.60;56.00
45785;DHT22;31489;51.404;5.474;2022-07-25T01:09:58;26.60;56.20
45785;DHT22;31489;51.404;5.474;2022-07-25T01:12:24;26.50;56.20
45785;DHT22;31489;51.404;5.474;2022-07-25T01:14:49;26.50;56.10
45785;DHT22;31489;51.404;5.474;2022-07-25T01:17:15;26.50;56.20
45785;DHT22;31489;51.404;5.474;2022-07-25T01:19:42;26.40;56.10
45785;DHT22;31489;51.404;5.474;2022-07-25T01:22:07;26.50;56.40
45785;DHT22;31489;51.404;5.474;2022-07-25T01:24:34;26.40;56.30
45785;DHT22;31489;51.404;5.474;2022-07-25T01:27:01;26.40;56.50
45785;DHT22;31489;51.404;5.474;2022-07-25T01:29:27;26.40;56.40
45785;DHT22;31489;51.404;5.474;2022-07-25T01:31:53;26.40;56.40
45785;DHT22;31489;51.404;5.474;2022-07-25T01:34:19;26.30;56.30
45785;DHT22;31489;51.404;5.474;2022-07-25T01:36:45;26.30;56.50
45785;DHT22;31489;51.404;5.474;2022-07-25T01:39:11;26.30;56.30
45785;DHT22;31489;51.404;5.474;2022-07-25T01:41:36;26.30;56.40
45785;DHT22;31489;51.404;5.474;2022-07-25T01:44:02;26.30;56.50
45785;DHT22;31489;51.404;5.474;2022-07-25T01:46:28;26.20;56.50
45785;DHT22;31489;51.404;5.474;2022-07-25T01:48:54;26.20;56.30
45785;DHT22;31489;51.404;5.474;2022-07-25T01:51:19;26.20;56.30
45785;DHT22;31489;51.404;5.474;2022-07-25T01:53:45;26.20;56.40
45785;DHT22;31489;51.404;5.474;2022-07-25T01:56:11;26.10;56.40
45785;DHT22;31489;51.404;5.474;2022-07-25T01:58:36;26.10;56.50
45785;DHT22;31489;51.404;5.474;2022-07-25T02:01:02;26.10;56.50
45785;DHT22;31489;51.404;5.474;2022-07-25T02:03:28;26.10;56.50
45785;DHT22;31489;51.404;5.474;2022-07-25T02:06:06;26.10;56.40
45785;DHT22;31489;51.404;5.474;2022-07-25T02:08:32;26.10;56.70
45785;DHT22;31489;51.404;5.474;2022-07-25T02:10:59;26.10;56.50
45785;DHT22;31489;51.404;5.474;2022-07-25T02:13:25;26.00;56.40
45785;DHT22;31489;51.404;5.474;2022-07-25T02:15:50;26.00;56.40
45785;DHT22;31489;51.404;5.474;2022-07-25T02:18:17;26.00;56.20
45785;DHT22;31489;51.404;5.474;2022-07-25T02:20:42;26.00;56.50
45785;DHT22;31489;51.404;5.474;2022-07-25T02:23:08;26.00;56.00
45785;DHT22;31489;51.404;5.474;2022-07-25T02:25:34;26.00;56.10
45785;DHT22;31489;51.404;5.474;2022-07-25T02:28:00;26.00;56.00
45785;DHT22;31489;51.404;5.474;2022-07-25T02:30:28;26.00;56.00
45785;DHT22;31489;51.404;5.474;2022-07-25T02:32:54;25.90;56.00
45785;DHT22;31489;51.404;5.474;2022-07-25T02:35:20;25.90;55.80
45785;DHT22;31489;51.404;5.474;2022-07-25T02:37:45;26.00;55.80
45785;DHT22;31489;51.404;5.474;2022-07-25T02:40:11;25.90;56.40
45785;DHT22;31489;51.404;5.474;2022-07-25T02:42:37;25.90;55.90
45785;DHT22;31489;51.404;5.474;2022-07-25T02:45:03;25.90;55.80
45785;DHT22;31489;51.404;5.474;2022-07-25T02:47:29;25.80;55.80
45785;DHT22;31489;51.404;5.474;2022-07-25T02:49:55;25.90;55.90
45785;DHT22;31489;51.404;5.474;2022-07-25T02:52:20;25.80;55.90
45785;DHT22;31489;51.404;5.474;2022-07-25T02:54:46;25.90;55.80
45785;DHT22;31489;51.404;5.474;2022-07-25T02:57:12;25.80;55.70
45785;DHT22;31489;51.404;5.474;2022-07-25T02:59:37;25.90;55.40
45785;DHT22;31489;51.404;5.474;2022-07-25T03:02:03;25.80;55.50
45785;DHT22;31489;51.404;5.474;2022-07-25T03:04:29;25.80;55.50
45785;DHT22;31489;51.404;5.474;2022-07-25T03:06:55;25.80;55.50
45785;DHT22;31489;51.404;5.474;2022-07-25T03:09:21;25.80;55.50
45785;DHT22;31489;51.404;5.474;2022-07-25T03:11:46;25.80;55.50
45785;DHT22;31489;51.404;5.474;2022-07-25T03:14:12;25.80;55.60
45785;DHT22;31489;51.404;5.474;2022-07-25T03:16:38;25.80;55.50
45785;DHT22;31489;51.404;5.474;2022-07-25T03:19:03;25.80;55.30
45785;DHT22;31489;51.404;5.474;2022-07-25T03:21:29;25.70;55.30
45785;DHT22;31489;51.404;5.474;2022-07-25T03:23:55;25.70;55.10
45785;DHT22;31489;51.404;5.474;2022-07-25T03:26:20;25.70;55.20
45785;DHT22;31489;51.404;5.474;2022-07-25T03:28:46;25.70;55.20
45785;DHT22;31489;51.404;5.474;2022-07-25T03:31:11;25.70;55.20
45785;DHT22;31489;51.404;5.474;2022-07-25T03:33:37;25.70;55.30
45785;DHT22;31489;51.404;5.474;2022-07-25T03:36:03;25.70;55.20
45785;DHT22;31489;51.404;5.474;2022-07-25T03:38:28;25.70;55.20
45785;DHT22;31489;51.404;5.474;2022-07-25T03:40:54;25.60;55.30
45785;DHT22;31489;51.404;5.474;2022-07-25T03:43:19;25.60;55.30
45785;DHT22;31489;51.404;5.474;2022-07-25T03:45:45;25.60;55.70
45785;DHT22;31489;51.404;5.474;2022-07-25T03:48:11;25.60;55.20
45785;DHT22;31489;51.404;5.474;2022-07-25T03:50:36;25.60;55.70
45785;DHT22;31489;51.404;5.474;2022-07-25T03:53:02;25.50;55.80
45785;DHT22;31489;51.404;5.474;2022-07-25T03:55:28;25.60;56.00
45785;DHT22;31489;51.404;5.474;2022-07-25T03:57:54;25.50;55.60
45785;DHT22;31489;51.404;5.474;2022-07-25T04:00:20;25.50;55.50
45785;DHT22;31489;51.404;5.474;2022-07-25T04:02:46;25.50;55.30
45785;DHT22;31489;51.404;5.474;2022-07-25T04:05:11;25.50;55.20
45785;DHT22;31489;51.404;5.474;2022-07-25T04:07:38;25.50;55.40
45785;DHT22;31489;51.404;5.474;2022-07-25T04:10:04;25.50;55.60
45785;DHT22;31489;51.404;5.474;2022-07-25T04:12:30;25.50;55.60
45785;DHT22;31489;51.404;5.474;2022-07-25T04:14:56;25.50;55.60
45785;DHT22;31489;51.404;5.474;2022-07-25T04:17:22;25.50;55.70
45785;DHT22;31489;51.404;5.474;2022-07-25T04:19:48;25.50;55.80
45785;DHT22;31489;51.404;5.474;2022-07-25T04:22:15;25.50;56.00
45785;DHT22;31489;51.404;5.474;2022-07-25T04:24:41;25.50;55.90
45785;DHT22;31489;51.404;5.474;2022-07-25T04:27:06;25.50;55.50
45785;DHT22;31489;51.404;5.474;2022-07-25T04:29:32;25.50;56.00
45785;DHT22;31489;51.404;5.474;2022-07-25T04:31:57;25.50;56.00
45785;DHT22;31489;51.404;5.474;2022-07-25T04:34:23;25.50;56.50
45785;DHT22;31489;51.404;5.474;2022-07-25T04:36:49;25.50;56.00
45785;DHT22;31489;51.404;5.474;2022-07-25T04:39:15;25.50;56.30
45785;DHT22;31489;51.404;5.474;2022-07-25T04:41:40;25.50;56.20
45785;DHT22;31489;51.404;5.474;2022-07-25T04:44:06;25.50;55.30
45785;DHT22;31489;51.404;5.474;2022-07-25T04:46:32;25.50;55.20
45785;DHT22;31489;51.404;5.474;2022-07-25T04:48:58;25.50;55.40
45785;DHT22;31489;51.404;5.474;2022-07-25T04:51:24;25.50;54.70
45785;DHT22;31489;51.404;5.474;2022-07-25T04:53:49;25.50;54.60
45785;DHT22;31489;51.404;5.474;2022-07-25T04:56:15;25.50;55.10
45785;DHT22;31489;51.404;5.474;2022-07-25T04:58:41;25.60;54.50
45785;DHT22;31489;51.404;5.474;2022-07-25T05:01:07;25.60;54.30
45785;DHT22;31489;51.404;5.474;2022-07-25T05:03:32;25.60;54.20
45785;DHT22;31489;51.404;5.474;2022-07-25T05:05:58;25.60;54.70
45785;DHT22;31489;51.404;5.474;2022-07-25T05:08:26;25.60;54.20
45785;DHT22;31489;51.404;5.474;2022-07-25T05:10:53;25.60;54.10
45785;DHT22;31489;51.404;5.474;2022-07-25T05:13:18;25.60;54.00
45785;DHT22;31489;51.404;5.474;2022-07-25T05:15:44;25.70;54.00
45785;DHT22;31489;51.404;5.474;2022-07-25T05:18:10;25.70;54.20
45785;DHT22;31489;51.404;5.474;2022-07-25T05:20:35;25.70;55.30
45785;DHT22;31489;51.404;5.474;2022-07-25T05:23:01;25.70;54.40
45785;DHT22;31489;51.404;5.474;2022-07-25T05:25:26;25.70;55.50
45785;DHT22;31489;51.404;5.474;2022-07-25T05:27:53;25.70;54.60
45785;DHT22;31489;51.404;5.474;2022-07-25T05:30:20;25.80;55.20
45785;DHT22;31489;51.404;5.474;2022-07-25T05:32:45;25.80;54.40
45785;DHT22;31489;51.404;5.474;2022-07-25T05:35:11;25.80;54.30
45785;DHT22;31489;51.404;5.474;2022-07-25T05:37:37;25.80;54.30
45785;DHT22;31489;51.404;5.474;2022-07-25T05:40:04;25.80;54.40
45785;DHT22;31489;51.404;5.474;2022-07-25T05:42:30;25.90;54.40
45785;DHT22;31489;51.404;5.474;2022-07-25T05:44:56;25.90;54.30
45785;DHT22;31489;51.404;5.474;2022-07-25T05:47:22;25.90;54.40
45785;DHT22;31489;51.404;5.474;2022-07-25T05:49:47;25.90;54.30
45785;DHT22;31489;51.404;5.474;2022-07-25T05:52:13;25.90;54.30
45785;DHT22;31489;51.404;5.474;2022-07-25T05:54:39;25.90;54.30
45785;DHT22;31489;51.404;5.474;2022-07-25T05:57:04;26.00;54.30
45785;DHT22;31489;51.404;5.474;2022-07-25T05:59:30;26.00;54.40
45785;DHT22;31489;51.404;5.474;2022-07-25T06:01:56;26.00;54.40
45785;DHT22;31489;51.404;5.474;2022-07-25T06:04:21;26.00;54.50
45785;DHT22;31489;51.404;5.474;2022-07-25T06:06:47;25.90;54.40
45785;DHT22;31489;51.404;5.474;2022-07-25T06:09:19;26.00;54.50
45785;DHT22;31489;51.404;5.474;2022-07-25T06:11:47;26.00;54.50
45785;DHT22;31489;51.404;5.474;2022-07-25T06:14:12;25.90;54.60
45785;DHT22;31489;51.404;5.474;2022-07-25T06:16:39;25.90;54.70
45785;DHT22;31489;51.404;5.474;2022-07-25T06:19:05;25.90;54.70
45785;DHT22;31489;51.404;5.474;2022-07-25T06:21:31;25.90;54.70
45785;DHT22;31489;51.404;5.474;2022-07-25T06:23:57;25.90;54.70
45785;DHT22;31489;51.404;5.474;2022-07-25T06:26:23;25.90;54.80
45785;DHT22;31489;51.404;5.474;2022-07-25T06:28:49;26.00;54.60
45785;DHT22;31489;51.404;5.474;2022-07-25T06:31:16;26.00;54.40
45785;DHT22;31489;51.404;5.474;2022-07-25T06:33:41;26.00;54.30
45785;DHT22;31489;51.404;5.474;2022-07-25T06:36:08;26.00;54.30
45785;DHT22;31489;51.404;5.474;2022-07-25T06:38:35;26.10;54.20
45785;DHT22;31489;51.404;5.474;2022-07-25T06:41:01;26.10;54.40
45785;DHT22;31489;51.404;5.474;2022-07-25T06:43:27;26.10;54.30
45785;DHT22;31489;51.404;5.474;2022-07-25T06:45:52;26.10;54.20
45785;DHT22;31489;51.404;5.474;2022-07-25T06:48:18;26.00;54.00
45785;DHT22;31489;51.404;5.474;2022-07-25T06:50:45;26.10;53.80
45785;DHT22;31489;51.404;5.474;2022-07-25T06:53:11;26.10;53.90
45785;DHT22;31489;51.404;5.474;2022-07-25T06:55:36;26.00;53.90
45785;DHT22;31489;51.404;5.474;2022-07-25T06:58:02;26.10;54.00
45785;DHT22;31489;51.404;5.474;2022-07-25T07:00:28;26.00;54.00
45785;DHT22;31489;51.404;5.474;2022-07-25T07:02:56;26.00;54.00
45785;DHT22;31489;51.404;5.474;2022-07-25T07:05:28;26.00;54.00
45785;DHT22;31489;51.404;5.474;2022-07-25T07:07:54;26.00;54.00
45785;DHT22;31489;51.404;5.474;2022-07-25T07:10:20;26.00;54.10
45785;DHT22;31489;51.404;5.474;2022-07-25T07:12:47;26.00;54.20
45785;DHT22;31489;51.404;5.474;2022-07-25T07:15:13;26.00;54.10
45785;DHT22;31489;51.404;5.474;2022-07-25T07:17:39;26.00;54.40
45785;DHT22;31489;51.404;5.474;2022-07-25T07:20:06;26.00;55.10
45785;DHT22;31489;51.404;5.474;2022-07-25T07:22:42;26.00;54.80
45785;DHT22;31489;51.404;5.474;2022-07-25T07:25:08;26.10;55.10
45785;DHT22;31489;51.404;5.474;2022-07-25T07:27:34;26.10;55.10
45785;DHT22;31489;51.404;5.474;2022-07-25T07:30:00;26.10;55.10
45785;DHT22;31489;51.404;5.474;2022-07-25T07:32:25;26.10;55.20
45785;DHT22;31489;51.404;5.474;2022-07-25T07:34:51;26.10;55.30
45785;DHT22;31489;51.404;5.474;2022-07-25T07:37:17;26.10;55.30
45785;DHT22;31489;51.404;5.474;2022-07-25T07:39:43;26.20;55.40
45785;DHT22;31489;51.404;5.474;2022-07-25T07:42:09;26.20;55.30
45785;DHT22;31489;51.404;5.474;2022-07-25T07:44:34;26.20;55.30
45785;DHT22;31489;51.404;5.474;2022-07-25T07:47:00;26.30;55.60
45785;DHT22;31489;51.404;5.474;2022-07-25T07:49:29;26.20;55.60
45785;DHT22;31489;51.404;5.474;2022-07-25T07:51:55;26.30;56.00
45785;DHT22;31489;51.404;5.474;2022-07-25T07:54:21;26.20;56.10
45785;DHT22;31489;51.404;5.474;2022-07-25T07:57:05;26.30;56.30
45785;DHT22;31489;51.404;5.474;2022-07-25T07:59:31;26.30;56.20
45785;DHT22;31489;51.404;5.474;2022-07-25T08:01:57;26.30;57.10
45785;DHT22;31489;51.404;5.474;2022-07-25T08:04:22;26.30;56.50
45785;DHT22;31489;51.404;5.474;2022-07-25T08:06:48;26.30;56.80
45785;DHT22;31489;51.404;5.474;2022-07-25T08:09:13;26.30;56.80
45785;DHT22;31489;51.404;5.474;2022-07-25T08:11:39;26.30;56.70
45785;DHT22;31489;51.404;5.474;2022-07-25T08:14:05;26.40;56.90
45785;DHT22;31489;51.404;5.474;2022-07-25T08:16:32;26.40;57.00
45785;DHT22;31489;51.404;5.474;2022-07-25T08:18:58;26.50;57.20
45785;DHT22;31489;51.404;5.474;2022-07-25T08:21:24;26.60;56.80
45785;DHT22;31489;51.404;5.474;2022-07-25T08:23:49;26.60;56.60
45785;DHT22;31489;51.404;5.474;2022-07-25T08:26:15;26.70;56.70
45785;DHT22;31489;51.404;5.474;2022-07-25T08:28:41;26.70;56.80
45785;DHT22;31489;51.404;5.474;2022-07-25T08:31:07;26.80;56.70
45785;DHT22;31489;51.404;5.474;2022-07-25T08:33:33;26.80;56.80
45785;DHT22;31489;51.404;5.474;2022-07-25T08:35:59;26.80;56.80
45785;DHT22;31489;51.404;5.474;2022-07-25T08:38:26;26.80;56.80
45785;DHT22;31489;51.404;5.474;2022-07-25T08:40:54;26.80;57.00
45785;DHT22;31489;51.404;5.474;2022-07-25T08:43:20;26.80;57.00
45785;DHT22;31489;51.404;5.474;2022-07-25T08:45:47;26.90;57.30
45785;DHT22;31489;51.404;5.474;2022-07-25T08:48:17;26.90;57.50
45785;DHT22;31489;51.404;5.474;2022-07-25T08:50:43;26.90;57.60
45785;DHT22;31489;51.404;5.474;2022-07-25T08:53:11;27.00;57.60
45785;DHT22;31489;51.404;5.474;2022-07-25T08:55:37;27.00;57.50
45785;DHT22;31489;51.404;5.474;2022-07-25T08:58:04;27.00;57.70
45785;DHT22;31489;51.404;5.474;2022-07-25T09:00:30;27.10;57.60
45785;DHT22;31489;51.404;5.474;2022-07-25T09:02:57;27.10;57.20
45785;DHT22;31489;51.404;5.474;2022-07-25T09:05:25;27.10;57.30
45785;DHT22;31489;51.404;5.474;2022-07-25T09:07:52;27.20;57.50
45785;DHT22;31489;51.404;5.474;2022-07-25T09:10:27;27.30;57.20
45785;DHT22;31489;51.404;5.474;2022-07-25T09:13:01;27.30;57.10
45785;DHT22;31489;51.404;5.474;2022-07-25T09:15:32;27.30;57.30
45785;DHT22;31489;51.404;5.474;2022-07-25T09:18:00;27.40;57.30
45785;DHT22;31489;51.404;5.474;2022-07-25T09:23:05;27.50;57.50
45785;DHT22;31489;51.404;5.474;2022-07-25T09:25:31;27.60;57.20
45785;DHT22;31489;51.404;5.474;2022-07-25T09:28:14;27.60;57.10
45785;DHT22;31489;51.404;5.474;2022-07-25T09:30:52;27.70;56.80
45785;DHT22;31489;51.404;5.474;2022-07-25T09:33:19;27.80;56.50
45785;DHT22;31489;51.404;5.474;2022-07-25T09:35:46;27.90;56.60
45785;DHT22;31489;51.404;5.474;2022-07-25T09:38:13;27.90;56.20
45785;DHT22;31489;51.404;5.474;2022-07-25T09:40:40;28.00;56.40
45785;DHT22;31489;51.404;5.474;2022-07-25T09:43:07;28.00;56.20
45785;DHT22;31489;51.404;5.474;2022-07-25T09:45:33;28.10;55.70
45785;DHT22;31489;51.404;5.474;2022-07-25T09:48:01;28.00;55.50
45785;DHT22;31489;51.404;5.474;2022-07-25T09:50:29;28.10;55.80
45785;DHT22;31489;51.404;5.474;2022-07-25T09:52:58;28.10;55.00
45785;DHT22;31489;51.404;5.474;2022-07-25T09:55:27;28.10;54.80
45785;DHT22;31489;51.404;5.474;2022-07-25T09:57:53;28.20;54.80
45785;DHT22;31489;51.404;5.474;2022-07-25T10:00:22;28.20;55.00
45785;DHT22;31489;51.404;5.474;2022-07-25T10:05:31;28.20;54.40
45785;DHT22;31489;51.404;5.474;2022-07-25T10:07:59;28.20;54.00
45785;DHT22;31489;51.404;5.474;2022-07-25T10:10:35;28.30;53.40
45785;DHT22;31489;51.404;5.474;2022-07-25T10:13:13;28.30;53.20
45785;DHT22;31489;51.404;5.474;2022-07-25T10:15:47;28.30;52.80
45785;DHT22;31489;51.404;5.474;2022-07-25T10:18:14;28.40;53.30
45785;DHT22;31489;51.404;5.474;2022-07-25T10:20:40;28.40;53.30
45785;DHT22;31489;51.404;5.474;2022-07-25T10:23:24;28.40;53.40
45785;DHT22;31489;51.404;5.474;2022-07-25T10:26:00;28.50;53.50
45785;DHT22;31489;51.404;5.474;2022-07-25T10:28:39;28.50;53.20
45785;DHT22;31489;51.404;5.474;2022-07-25T10:34:00;28.60;52.40
45785;DHT22;31489;51.404;5.474;2022-07-25T10:36:39;28.60;52.30
45785;DHT22;31489;51.404;5.474;2022-07-25T10:39:08;28.80;52.60
45785;DHT22;31489;51.404;5.474;2022-07-25T10:41:39;28.80;51.80
45785;DHT22;31489;51.404;5.474;2022-07-25T10:44:11;28.80;51.30
45785;DHT22;31489;51.404;5.474;2022-07-25T10:46:37;28.90;51.00
45785;DHT22;31489;51.404;5.474;2022-07-25T10:49:06;29.00;51.60
45785;DHT22;31489;51.404;5.474;2022-07-25T10:51:35;29.00;51.10
45785;DHT22;31489;51.404;5.474;2022-07-25T10:54:16;29.20;50.90
45785;DHT22;31489;51.404;5.474;2022-07-25T10:56:57;29.20;50.60
45785;DHT22;31489;51.404;5.474;2022-07-25T10:59:36;29.40;50.40
45785;DHT22;31489;51.404;5.474;2022-07-25T11:02:03;29.50;50.00
45785;DHT22;31489;51.404;5.474;2022-07-25T11:04:31;29.60;50.00
45785;DHT22;31489;51.404;5.474;2022-07-25T11:06:57;29.70;49.60
45785;DHT22;31489;51.404;5.474;2022-07-25T11:09:24;29.80;49.30
45785;DHT22;31489;51.404;5.474;2022-07-25T11:11:53;29.90;49.30
45785;DHT22;31489;51.404;5.474;2022-07-25T11:14:30;29.90;48.70
45785;DHT22;31489;51.404;5.474;2022-07-25T11:17:09;29.90;47.20
45785;DHT22;31489;51.404;5.474;2022-07-25T11:19:35;29.90;47.80
45785;DHT22;31489;51.404;5.474;2022-07-25T11:22:01;30.00;47.70
45785;DHT22;31489;51.404;5.474;2022-07-25T11:24:35;30.00;48.10
45785;DHT22;31489;51.404;5.474;2022-07-25T11:27:02;30.20;48.60
45785;DHT22;31489;51.404;5.474;2022-07-25T11:29:28;30.40;48.80
45785;DHT22;31489;51.404;5.474;2022-07-25T11:32:06;30.60;47.90
45785;DHT22;31489;51.404;5.474;2022-07-25T11:34:35;30.70;46.90
45785;DHT22;31489;51.404;5.474;2022-07-25T11:37:04;30.80;46.70
45785;DHT22;31489;51.404;5.474;2022-07-25T11:39:33;30.80;46.10
45785;DHT22;31489;51.404;5.474;2022-07-25T11:42:07;30.80;45.70
45785;DHT22;31489;51.404;5.474;2022-07-25T11:44:39;30.70;45.60
45785;DHT22;31489;51.404;5.474;2022-07-25T11:47:06;30.70;46.10
45785;DHT22;31489;51.404;5.474;2022-07-25T11:49:46;30.70;46.00
45785;DHT22;31489;51.404;5.474;2022-07-25T11:54:53;30.80;44.80
45785;DHT22;31489;51.404;5.474;2022-07-25T11:57:24;30.90;46.10
45785;DHT22;31489;51.404;5.474;2022-07-25T11:59:50;30.90;46.30
45785;DHT22;31489;51.404;5.474;2022-07-25T12:02:30;31.00;46.20
45785;DHT22;31489;51.404;5.474;2022-07-25T12:05:07;30.90;45.60
45785;DHT22;31489;51.404;5.474;2022-07-25T12:07:53;30.90;44.80
45785;DHT22;31489;51.404;5.474;2022-07-25T12:10:31;30.90;45.20
45785;DHT22;31489;51.404;5.474;2022-07-25T12:12:58;30.70;45.10
45785;DHT22;31489;51.404;5.474;2022-07-25T12:15:28;30.60;45.20
45785;DHT22;31489;51.404;5.474;2022-07-25T12:17:56;30.40;45.20
45785;DHT22;31489;51.404;5.474;2022-07-25T12:20:25;30.30;45.20
45785;DHT22;31489;51.404;5.474;2022-07-25T12:22:53;30.20;45.50
45785;DHT22;31489;51.404;5.474;2022-07-25T12:25:20;30.10;45.30
45785;DHT22;31489;51.404;5.474;2022-07-25T12:27:46;30.00;45.80
45785;DHT22;31489;51.404;5.474;2022-07-25T12:30:12;30.00;45.80
45785;DHT22;31489;51.404;5.474;2022-07-25T12:32:39;29.90;45.80
45785;DHT22;31489;51.404;5.474;2022-07-25T12:35:08;29.90;46.10
45785;DHT22;31489;51.404;5.474;2022-07-25T12:37:34;29.90;45.80
45785;DHT22;31489;51.404;5.474;2022-07-25T12:40:00;29.90;45.90
45785;DHT22;31489;51.404;5.474;2022-07-25T12:42:25;29.90;45.90
45785;DHT22;31489;51.404;5.474;2022-07-25T12:44:54;29.90;46.10
45785;DHT22;31489;51.404;5.474;2022-07-25T12:47:23;29.70;45.80
45785;DHT22;31489;51.404;5.474;2022-07-25T12:49:49;29.70;46.00
45785;DHT22;31489;51.404;5.474;2022-07-25T12:52:15;29.60;45.90
45785;DHT22;31489;51.404;5.474;2022-07-25T12:54:42;29.60;45.80
45785;DHT22;31489;51.404;5.474;2022-07-25T12:57:10;29.40;45.90
45785;DHT22;31489;51.404;5.474;2022-07-25T12:59:36;29.30;45.80
45785;DHT22;31489;51.404;5.474;2022-07-25T13:02:02;29.20;45.80
45785;DHT22;31489;51.404;5.474;2022-07-25T13:04:29;29.00;45.70
45785;DHT22;31489;51.404;5.474;2022-07-25T13:06:55;28.90;45.90
45785;DHT22;31489;51.404;5.474;2022-07-25T13:09:22;28.80;46.30
45785;DHT22;31489;51.404;5.474;2022-07-25T13:11:54;28.70;46.20
45785;DHT22;31489;51.404;5.474;2022-07-25T13:14:23;28.60;46.50
45785;DHT22;31489;51.404;5.474;2022-07-25T13:16:49;28.60;46.50
45785;DHT22;31489;51.404;5.474;2022-07-25T13:19:16;28.50;47.00
45785;DHT22;31489;51.404;5.474;2022-07-25T13:21:43;28.50;47.30
45785;DHT22;31489;51.404;5.474;2022-07-25T13:24:09;28.50;47.20
45785;DHT22;31489;51.404;5.474;2022-07-25T13:26:36;28.60;47.00
45785;DHT22;31489;51.404;5.474;2022-07-25T13:29:02;28.60;46.90
45785;DHT22;31489;51.404;5.474;2022-07-25T13:31:38;28.60;46.70
45785;DHT22;31489;51.404;5.474;2022-07-25T13:34:05;28.70;46.60
45785;DHT22;31489;51.404;5.474;2022-07-25T13:36:33;28.80;46.40
45785;DHT22;31489;51.404;5.474;2022-07-25T13:38:59;28.80;46.20
45785;DHT22;31489;51.404;5.474;2022-07-25T13:41:25;28.90;46.40
45785;DHT22;31489;51.404;5.474;2022-07-25T13:43:51;29.00;46.30
45785;DHT22;31489;51.404;5.474;2022-07-25T13:46:20;29.00;46.30
45785;DHT22;31489;51.404;5.474;2022-07-25T13:48:46;29.20;46.40
45785;DHT22;31489;51.404;5.474;2022-07-25T13:51:12;29.30;46.30
45785;DHT22;31489;51.404;5.474;2022-07-25T13:53:37;29.40;46.50
45785;DHT22;31489;51.404;5.474;2022-07-25T13:56:03;29.50;46.10
45785;DHT22;31489;51.404;5.474;2022-07-25T13:58:30;29.60;45.80
45785;DHT22;31489;51.404;5.474;2022-07-25T14:00:57;29.60;45.40
45785;DHT22;31489;51.404;5.474;2022-07-25T14:03:23;29.70;45.70
45785;DHT22;31489;51.404;5.474;2022-07-25T14:05:49;29.70;45.40
45785;DHT22;31489;51.404;5.474;2022-07-25T14:08:15;29.80;45.40
45785;DHT22;31489;51.404;5.474;2022-07-25T14:10:41;29.90;45.30
45785;DHT22;31489;51.404;5.474;2022-07-25T14:13:09;30.00;45.60
45785;DHT22;31489;51.404;5.474;2022-07-25T14:15:37;30.10;45.10
45785;DHT22;31489;51.404;5.474;2022-07-25T14:18:03;30.20;45.10
45785;DHT22;31489;51.404;5.474;2022-07-25T14:20:29;30.30;44.10
45785;DHT22;31489;51.404;5.474;2022-07-25T14:22:55;30.40;43.50
45785;DHT22;31489;51.404;5.474;2022-07-25T14:25:21;30.50;43.00
45785;DHT22;31489;51.404;5.474;2022-07-25T14:27:47;30.40;42.60
45785;DHT22;31489;51.404;5.474;2022-07-25T14:30:13;30.50;42.50
45785;DHT22;31489;51.404;5.474;2022-07-25T14:32:38;30.40;42.60
45785;DHT22;31489;51.404;5.474;2022-07-25T14:35:05;30.30;42.60
45785;DHT22;31489;51.404;5.474;2022-07-25T14:37:31;30.30;42.70
45785;DHT22;31489;51.404;5.474;2022-07-25T14:39:58;30.20;42.50
45785;DHT22;31489;51.404;5.474;2022-07-25T14:42:24;30.10;42.60
45785;DHT22;31489;51.404;5.474;2022-07-25T14:44:50;30.10;43.00
45785;DHT22;31489;51.404;5.474;2022-07-25T14:47:16;30.10;43.00
45785;DHT22;31489;51.404;5.474;2022-07-25T14:49:46;30.00;43.00
45785;DHT22;31489;51.404;5.474;2022-07-25T14:52:11;30.00;43.00
45785;DHT22;31489;51.404;5.474;2022-07-25T14:54:38;29.90;43.00
45785;DHT22;31489;51.404;5.474;2022-07-25T14:57:04;29.90;43.20
45785;DHT22;31489;51.404;5.474;2022-07-25T14:59:30;29.90;43.60
45785;DHT22;31489;51.404;5.474;2022-07-25T15:01:56;29.90;43.50
45785;DHT22;31489;51.404;5.474;2022-07-25T15:04:21;29.90;42.60
45785;DHT22;31489;51.404;5.474;2022-07-25T15:06:50;29.90;42.40
45785;DHT22;31489;51.404;5.474;2022-07-25T15:09:17;30.00;42.60
45785;DHT22;31489;51.404;5.474;2022-07-25T15:11:43;30.00;42.50
45785;DHT22;31489;51.404;5.474;2022-07-25T15:14:09;30.00;41.70
45785;DHT22;31489;51.404;5.474;2022-07-25T15:16:35;30.00;41.30
45785;DHT22;31489;51.404;5.474;2022-07-25T15:19:01;30.10;41.40
45785;DHT22;31489;51.404;5.474;2022-07-25T15:21:28;30.10;41.50
45785;DHT22;31489;51.404;5.474;2022-07-25T15:23:54;30.10;41.00
45785;DHT22;31489;51.404;5.474;2022-07-25T15:26:22;30.10;41.40
45785;DHT22;31489;51.404;5.474;2022-07-25T15:28:48;30.10;41.20
45785;DHT22;31489;51.404;5.474;2022-07-25T15:31:14;30.10;41.10
45785;DHT22;31489;51.404;5.474;2022-07-25T15:33:39;30.10;41.30
45785;DHT22;31489;51.404;5.474;2022-07-25T15:36:05;30.10;41.10
45785;DHT22;31489;51.404;5.474;2022-07-25T15:38:31;30.10;40.70
45785;DHT22;31489;51.404;5.474;2022-07-25T15:40:57;30.10;40.70